Time;durP1;ratioP1;P1;durP2;ratioP2;P2;SDS_P1;SDS_P2;PMS_P1;PMS_P2;Temp;Humidity;BMP_temperature;BMP_pressure;BME280_temperature;BME280_humidity;BME280_pressure;Samples;Min_cycle;Max_cycle;Signal;HPM_P1;HPM_P2
2022/03/20 00:00:15;;;;;;;23.58;18.63;;;5.70;99.90;;;;;;5076087;28;20214;-70
2022/03/20 00:02:42;;;;;;;22.30;17.25;;;5.70;99.90;;;;;;5074275;28;20204;-71
2022/03/20 00:05:08;;;;;;;26.52;18.55;;;5.70;99.90;;;;;;5075457;28;20196;-70
2022/03/20 00:07:35;;;;;;;25.27;18.45;;;5.60;99.90;;;;;;5076918;28;20309;-70
2022/03/20 00:10:04;;;;;;;22.35;17.70;;;5.70;99.90;;;;;;5075137;28;20560;-70
2022/03/20 00:12:30;;;;;;;24.67;18.52;;;5.60;99.90;;;;;;5075963;28;20203;-70
2022/03/20 00:14:56;;;;;;;23.27;18.38;;;5.60;99.90;;;;;;5075369;28;20200;-71
2022/03/20 00:17:23;;;;;;;26.08;18.45;;;5.50;99.90;;;;;;5075630;28;20203;-70
2022/03/20 00:19:50;;;;;;;27.23;17.90;;;5.40;99.90;;;;;;5076470;28;20260;-69
2022/03/20 00:22:16;;;;;;;23.85;18.45;;;5.40;99.90;;;;;;5076422;28;20215;-70
2022/03/20 00:24:44;;;;;;;22.58;19.27;;;5.40;99.90;;;;;;5075509;28;20203;-70
2022/03/20 00:27:12;;;;;;;21.80;17.45;;;5.30;99.90;;;;;;5075293;28;20556;-70
2022/03/20 00:29:39;;;;;;;22.10;17.40;;;5.30;99.90;;;;;;5075047;28;20679;-70
2022/03/20 00:32:08;;;;;;;20.88;17.50;;;5.30;99.90;;;;;;5074621;28;20624;-70
2022/03/20 00:34:35;;;;;;;23.63;16.27;;;5.20;99.90;;;;;;5075343;28;20570;-69
2022/03/20 00:37:02;;;;;;;26.83;17.65;;;5.10;99.90;;;;;;5073773;28;20269;-69
2022/03/20 00:39:29;;;;;;;24.60;17.10;;;5.00;99.90;;;;;;5075217;28;20246;-70
2022/03/20 00:41:55;;;;;;;22.67;17.23;;;5.10;99.90;;;;;;5075150;28;20256;-69
2022/03/20 00:44:22;;;;;;;24.02;17.52;;;5.00;99.90;;;;;;5075078;28;20796;-69
2022/03/20 00:46:48;;;;;;;26.27;18.40;;;4.90;99.90;;;;;;5074749;28;20212;-70
2022/03/20 00:49:16;;;;;;;22.30;17.20;;;4.90;99.90;;;;;;5074693;28;20241;-70
2022/03/20 00:51:43;;;;;;;24.20;18.17;;;4.80;99.90;;;;;;5073655;28;20592;-70
2022/03/20 00:54:11;;;;;;;23.23;16.67;;;4.80;99.90;;;;;;5075282;28;20200;-71
2022/03/20 00:56:38;;;;;;;23.95;17.38;;;4.80;99.90;;;;;;5074219;28;20281;-70
2022/03/20 00:59:05;;;;;;;21.38;16.60;;;4.80;99.90;;;;;;5074217;28;20211;-70
2022/03/20 01:01:32;;;;;;;23.70;17.15;;;4.70;99.90;;;;;;5074296;28;20202;-71
2022/03/20 01:03:58;;;;;;;24.98;17.65;;;4.70;99.90;;;;;;5073362;28;20227;-71
2022/03/20 01:06:24;;;;;;;26.63;17.10;;;4.60;99.90;;;;;;5074757;28;20224;-70
2022/03/20 01:08:52;;;;;;;28.60;18.17;;;4.60;99.90;;;;;;5074146;28;20223;-70
2022/03/20 01:11:19;;;;;;;20.73;17.35;;;4.50;99.90;;;;;;5074439;28;20208;-70
2022/03/20 01:13:45;;;;;;;24.88;17.48;;;4.40;99.90;;;;;;5073312;28;20200;-70
2022/03/20 01:16:12;;;;;;;28.13;16.92;;;4.40;99.90;;;;;;5074195;28;20196;-70
2022/03/20 01:18:39;;;;;;;25.30;17.55;;;4.40;99.90;;;;;;5074343;28;20675;-70
2022/03/20 01:21:07;;;;;;;24.88;17.30;;;4.40;99.90;;;;;;5074606;28;20203;-70
2022/03/20 01:23:34;;;;;;;24.55;17.50;;;4.40;99.90;;;;;;5074806;28;20400;-70
2022/03/20 01:26:00;;;;;;;19.80;16.98;;;4.50;99.90;;;;;;5074705;28;20208;-74
2022/03/20 01:28:26;;;;;;;23.05;17.50;;;4.40;99.90;;;;;;5074294;28;20273;-70
2022/03/20 01:30:55;;;;;;;21.48;16.13;;;4.40;99.90;;;;;;5074550;28;20199;-70
2022/03/20 01:33:21;;;;;;;21.58;16.05;;;4.50;99.90;;;;;;5073958;28;20605;-70
2022/03/20 01:35:48;;;;;;;21.20;16.00;;;4.50;99.90;;;;;;5073952;28;20203;-70
2022/03/20 01:38:21;;;;;;;23.33;16.27;;;4.50;99.90;;;;;;5073751;28;20204;-70
2022/03/20 01:40:50;;;;;;;21.80;17.58;;;4.50;99.90;;;;;;5073871;28;20636;-70
2022/03/20 01:43:17;;;;;;;22.00;16.73;;;4.50;99.90;;;;;;5074056;28;20203;-70
2022/03/20 01:45:43;;;;;;;29.55;18.30;;;4.40;99.90;;;;;;5074305;28;20208;-70
2022/03/20 01:48:10;;;;;;;20.00;15.90;;;4.30;99.90;;;;;;5074446;28;20220;-70
2022/03/20 01:50:37;;;;;;;23.08;17.30;;;4.40;99.90;;;;;;5073956;28;20196;-70
2022/03/20 01:53:03;;;;;;;28.27;18.08;;;4.30;99.90;;;;;;5074192;28;20199;-71
2022/03/20 01:55:29;;;;;;;23.02;17.15;;;4.30;99.90;;;;;;5074571;28;20252;-70
2022/03/20 01:57:57;;;;;;;18.52;15.13;;;4.20;99.90;;;;;;5074049;28;20204;-70
2022/03/20 02:00:25;;;;;;;18.60;15.63;;;4.20;99.90;;;;;;5073626;28;20208;-70
2022/03/20 02:02:53;;;;;;;24.88;17.80;;;4.20;99.90;;;;;;5073930;28;20596;-71
2022/03/20 02:05:19;;;;;;;22.27;16.40;;;4.20;99.90;;;;;;5073437;28;20246;-71
2022/03/20 02:07:47;;;;;;;27.33;17.95;;;4.20;99.90;;;;;;5073760;28;20741;-74
2022/03/20 02:10:15;;;;;;;26.15;17.05;;;4.10;99.90;;;;;;5074000;28;20658;-70
2022/03/20 02:12:42;;;;;;;20.75;15.55;;;4.10;99.90;;;;;;5073911;28;20196;-70
2022/03/20 02:15:12;;;;;;;22.08;16.33;;;4.00;99.90;;;;;;5074765;28;20257;-71
2022/03/20 02:17:40;;;;;;;21.85;17.45;;;3.90;99.90;;;;;;5077911;28;20207;-70
2022/03/20 02:20:08;;;;;;;23.05;17.15;;;3.90;99.90;;;;;;5077557;28;20196;-70
2022/03/20 02:22:42;;;;;;;21.13;15.48;;;3.90;99.90;;;;;;5076676;28;20203;-70
2022/03/20 02:25:10;;;;;;;21.20;15.52;;;3.90;99.90;;;;;;5076523;28;20184;-70
2022/03/20 02:27:39;;;;;;;21.92;15.70;;;3.90;99.90;;;;;;5077185;28;20489;-71
2022/03/20 02:30:15;;;;;;;24.27;15.52;;;4.00;99.90;;;;;;5077231;28;20204;-70
2022/03/20 02:32:43;;;;;;;22.13;15.82;;;4.00;99.90;;;;;;5077469;28;20557;-70
2022/03/20 02:35:14;;;;;;;20.30;15.32;;;4.10;99.90;;;;;;5076803;28;20207;-71
2022/03/20 02:37:43;;;;;;;23.08;17.48;;;4.10;99.90;;;;;;5077497;28;20284;-70
2022/03/20 02:40:11;;;;;;;23.58;17.02;;;4.10;99.90;;;;;;5077254;28;20262;-70
2022/03/20 02:42:40;;;;;;;28.05;17.52;;;4.10;99.90;;;;;;5076954;28;20204;-71
2022/03/20 02:45:09;;;;;;;23.13;17.10;;;4.10;99.90;;;;;;5077031;28;20233;-70
2022/03/20 02:47:41;;;;;;;21.88;16.27;;;4.10;99.90;;;;;;5076673;28;20199;-70
2022/03/20 02:50:10;;;;;;;21.13;15.45;;;4.00;99.90;;;;;;5077116;28;20204;-71
2022/03/20 02:52:46;;;;;;;22.95;17.52;;;4.10;99.90;;;;;;5077022;28;20207;-70
2022/03/20 02:55:14;;;;;;;23.75;16.73;;;4.10;99.90;;;;;;5076437;28;20272;-70
2022/03/20 02:57:40;;;;;;;20.52;15.85;;;4.10;99.90;;;;;;5076668;28;20320;-70
2022/03/20 03:00:08;;;;;;;32.97;16.67;;;4.20;99.90;;;;;;5075270;28;20200;-70
2022/03/20 03:02:43;;;;;;;22.98;15.95;;;4.30;99.90;;;;;;5076441;28;20688;-70
2022/03/20 03:05:12;;;;;;;19.42;16.75;;;4.20;99.90;;;;;;5076984;28;20256;-70
2022/03/20 03:13:12;;;;;;;21.50;15.98;;;4.00;99.90;;;;;;5076384;28;20643;-70
2022/03/20 03:15:38;;;;;;;24.63;15.27;;;3.90;99.90;;;;;;5076511;28;20188;-70
2022/03/20 03:18:05;;;;;;;22.42;16.98;;;3.90;99.90;;;;;;5076266;28;20736;-70
2022/03/20 03:20:32;;;;;;;23.48;15.05;;;4.00;99.90;;;;;;5076712;28;20206;-70
2022/03/20 03:22:59;;;;;;;21.55;16.15;;;4.10;99.90;;;;;;5076179;28;20203;-70
2022/03/20 03:25:26;;;;;;;30.67;17.67;;;4.10;99.90;;;;;;5076389;28;20222;-70
2022/03/20 03:27:52;;;;;;;23.02;15.93;;;4.20;99.90;;;;;;5075135;28;20535;-71
2022/03/20 03:30:22;;;;;;;22.15;15.93;;;4.40;99.90;;;;;;5075334;28;20196;-71
2022/03/20 03:32:49;;;;;;;18.48;15.45;;;4.40;99.90;;;;;;5075788;28;20612;-71
2022/03/20 03:38:01;;;;;;;22.33;15.77;;;4.40;99.90;;;;;;5075776;28;20196;-70
2022/03/20 03:40:28;;;;;;;21.77;16.67;;;4.40;99.90;;;;;;5076067;28;20200;-70
2022/03/20 03:42:54;;;;;;;20.00;15.30;;;4.40;99.90;;;;;;5076222;28;20196;-70
2022/03/20 03:45:24;;;;;;;22.23;16.50;;;4.30;99.90;;;;;;5075838;28;20200;-71
2022/03/20 03:47:51;;;;;;;25.77;16.77;;;4.40;99.90;;;;;;5074258;28;20192;-68
2022/03/20 03:50:19;;;;;;;20.55;16.55;;;4.40;99.90;;;;;;5075331;28;20227;-69
2022/03/20 03:52:46;;;;;;;20.02;16.17;;;4.40;99.90;;;;;;5076055;28;20257;-69
2022/03/20 03:55:13;;;;;;;23.90;16.25;;;4.40;99.90;;;;;;5075680;28;20245;-70
2022/03/20 03:57:47;;;;;;;21.38;15.38;;;4.40;99.90;;;;;;5075302;28;20531;-70
2022/03/20 04:00:16;;;;;;;23.55;15.38;;;4.50;99.90;;;;;;5075283;28;20211;-70
2022/03/20 04:02:42;;;;;;;21.88;15.70;;;4.40;99.90;;;;;;5075237;28;20264;-70
2022/03/20 04:05:10;;;;;;;23.65;16.58;;;4.40;99.90;;;;;;5075799;28;20584;-70
2022/03/20 04:07:37;;;;;;;21.80;15.10;;;4.50;99.90;;;;;;5075299;28;20207;-70
2022/03/20 04:10:05;;;;;;;22.17;17.00;;;4.50;99.90;;;;;;5074768;28;20223;-69
2022/03/20 04:12:36;;;;;;;22.88;16.02;;;4.50;99.90;;;;;;5075356;28;20621;-70
2022/03/20 04:15:04;;;;;;;20.83;16.08;;;4.50;99.90;;;;;;5074974;28;20184;-69
2022/03/20 04:17:32;;;;;;;22.95;16.63;;;4.50;99.90;;;;;;5075488;28;20222;-69
2022/03/20 04:19:59;;;;;;;19.65;15.43;;;4.50;99.90;;;;;;5074829;28;20210;-69
2022/03/20 04:22:29;;;;;;;21.02;15.63;;;4.50;99.90;;;;;;5074499;28;20204;-69
2022/03/20 04:24:56;;;;;;;21.98;16.80;;;4.50;99.90;;;;;;5073574;28;20212;-70
2022/03/20 04:27:24;;;;;;;21.70;16.00;;;4.50;99.90;;;;;;5074820;28;20570;-70
2022/03/20 04:29:50;;;;;;;25.48;17.33;;;4.60;99.90;;;;;;5075261;28;20223;-70
2022/03/20 04:32:16;;;;;;;21.90;14.77;;;4.60;99.90;;;;;;5075308;28;20211;-70
2022/03/20 04:34:43;;;;;;;20.55;16.60;;;4.50;99.90;;;;;;5074913;28;20670;-70
2022/03/20 04:37:10;;;;;;;26.08;15.63;;;4.60;99.90;;;;;;5074978;28;20200;-70
2022/03/20 04:39:38;;;;;;;20.23;15.07;;;4.50;99.90;;;;;;5074435;28;20210;-69
2022/03/20 04:42:05;;;;;;;23.05;16.38;;;4.60;99.90;;;;;;5074934;28;20204;-70
2022/03/20 04:44:32;;;;;;;23.48;16.55;;;4.60;99.90;;;;;;5074685;28;20295;-70
2022/03/20 04:46:59;;;;;;;19.95;15.27;;;4.70;99.90;;;;;;5074933;28;20562;-69
2022/03/20 05:00:24;;;;;;;22.05;15.82;;;4.40;99.90;;;;;;5074788;28;20191;-69
2022/03/20 05:02:51;;;;;;;24.63;16.75;;;4.40;99.90;;;;;;5073378;28;20196;-69
2022/03/20 05:05:18;;;;;;;26.60;16.08;;;4.40;99.90;;;;;;5074331;28;20200;-69
2022/03/20 05:07:45;;;;;;;23.65;15.63;;;4.40;99.90;;;;;;5074364;28;20236;-69
2022/03/20 05:13:20;;;;;;;23.63;15.13;;;4.50;99.90;;;;;;5065563;28;20200;-69
2022/03/20 05:15:46;;;;;;;27.25;15.82;;;4.50;99.90;;;;;;5073892;28;20640;-70
2022/03/20 05:18:13;;;;;;;21.10;16.25;;;4.50;99.90;;;;;;5073276;28;20244;-70
2022/03/20 05:20:41;;;;;;;23.73;16.75;;;4.60;99.90;;;;;;5074464;28;20245;-70
2022/03/20 05:23:07;;;;;;;22.58;15.20;;;4.60;99.90;;;;;;5074326;28;20241;-70
2022/03/20 05:25:34;;;;;;;19.15;15.07;;;4.50;99.90;;;;;;5073124;28;20199;-69
2022/03/20 05:28:00;;;;;;;24.98;17.33;;;4.50;99.90;;;;;;5074352;28;20211;-69
2022/03/20 05:30:27;;;;;;;18.73;15.93;;;4.50;99.90;;;;;;5056304;28;20273;-70
2022/03/20 05:32:54;;;;;;;20.80;17.35;;;4.50;99.90;;;;;;5073985;28;20205;-70
2022/03/20 05:35:21;;;;;;;23.58;15.70;;;4.50;99.90;;;;;;5073421;28;20203;-69
2022/03/20 05:37:47;;;;;;;23.13;16.42;;;4.50;99.90;;;;;;5074529;28;20551;-69
2022/03/20 05:40:15;;;;;;;25.95;17.85;;;4.50;99.90;;;;;;5074065;28;20686;-70
2022/03/20 05:42:42;;;;;;;23.10;16.70;;;4.40;99.90;;;;;;5073767;28;20204;-70
2022/03/20 05:45:10;;;;;;;24.27;17.20;;;4.40;99.90;;;;;;5074144;28;20651;-70
2022/03/20 05:47:38;;;;;;;23.23;17.40;;;4.30;99.90;;;;;;5074083;28;20226;-71
2022/03/20 05:50:06;;;;;;;23.23;16.73;;;4.30;99.90;;;;;;5074320;28;20219;-70
2022/03/20 05:52:33;;;;;;;21.90;17.40;;;4.20;99.90;;;;;;5078366;28;20657;-71
2022/03/20 05:55:01;;;;;;;24.92;17.38;;;4.20;99.90;;;;;;5077208;28;20204;-70
2022/03/20 06:00:24;;;;;;;29.42;18.95;;;4.20;99.90;;;;;;5078284;28;20188;-71
2022/03/20 06:02:51;;;;;;;23.48;18.23;;;4.20;99.90;;;;;;5077871;28;20204;-70
2022/03/20 06:05:17;;;;;;;23.73;17.52;;;4.30;99.90;;;;;;5077912;28;20249;-70
2022/03/20 06:07:47;;;;;;;26.38;19.75;;;4.30;99.90;;;;;;5077665;28;20689;-70
2022/03/20 06:10:18;;;;;;;23.67;17.52;;;4.30;99.90;;;;;;5078029;28;20747;-70
2022/03/20 06:12:45;;;;;;;29.23;19.45;;;4.40;99.90;;;;;;5077735;28;20628;-71
2022/03/20 06:15:12;;;;;;;29.42;19.35;;;4.50;99.90;;;;;;5077703;28;20551;-70
2022/03/20 06:17:41;;;;;;;26.27;18.80;;;4.50;99.90;;;;;;5077280;28;20546;-71
2022/03/20 06:20:09;;;;;;;26.20;19.35;;;4.50;99.90;;;;;;5077046;28;20211;-70
2022/03/20 06:22:36;;;;;;;32.05;19.15;;;4.50;99.90;;;;;;5077287;28;20238;-70
2022/03/20 06:25:06;;;;;;;28.88;19.52;;;4.60;99.90;;;;;;5077424;28;20277;-70
2022/03/20 06:27:41;;;;;;;30.05;18.48;;;4.60;99.90;;;;;;5076563;28;20214;-70
2022/03/20 06:30:09;;;;;;;21.90;17.25;;;4.70;99.90;;;;;;5076663;28;20568;-70
2022/03/20 06:32:36;;;;;;;29.17;21.55;;;4.90;99.90;;;;;;5077187;28;20720;-70
2022/03/20 06:35:07;;;;;;;28.48;21.00;;;4.90;99.90;;;;;;5077538;28;20264;-70
2022/03/20 06:37:38;;;;;;;25.55;19.55;;;5.00;99.90;;;;;;5077109;28;20222;-70
2022/03/20 06:40:05;;;;;;;24.27;17.58;;;5.00;99.90;;;;;;5077152;28;20253;-70
2022/03/20 06:42:32;;;;;;;27.30;19.42;;;5.10;99.90;;;;;;5076761;28;20204;-70
2022/03/20 06:44:59;;;;;;;21.88;17.42;;;5.10;99.90;;;;;;5077151;28;20222;-70
2022/03/20 06:47:27;;;;;;;29.20;19.73;;;5.20;99.90;;;;;;5076850;28;20269;-71
2022/03/20 06:49:55;;;;;;;22.13;18.80;;;5.30;99.90;;;;;;5077379;28;20220;-70
2022/03/20 06:52:22;;;;;;;23.33;17.60;;;5.30;99.90;;;;;;5077109;28;20603;-71
2022/03/20 06:54:49;;;;;;;23.52;18.92;;;5.40;99.90;;;;;;5076603;28;20196;-70
2022/03/20 06:57:20;;;;;;;24.45;18.63;;;5.40;99.90;;;;;;5076912;28;20606;-70
2022/03/20 06:59:46;;;;;;;24.38;18.88;;;5.40;99.90;;;;;;5076785;28;20556;-70
2022/03/20 07:02:13;;;;;;;25.65;17.67;;;5.50;99.90;;;;;;5075579;28;20200;-71
2022/03/20 07:04:39;;;;;;;25.15;18.90;;;5.50;99.90;;;;;;5076680;28;20227;-70
2022/03/20 07:07:06;;;;;;;24.88;18.55;;;5.50;99.90;;;;;;5076517;28;20223;-70
2022/03/20 07:09:35;;;;;;;26.65;19.10;;;5.70;99.90;;;;;;5077060;28;20238;-71
2022/03/20 07:12:02;;;;;;;24.83;19.15;;;5.80;99.90;;;;;;5075311;28;20199;-70
2022/03/20 07:14:28;;;;;;;27.25;18.67;;;5.70;99.90;;;;;;5076105;28;20202;-70
2022/03/20 07:16:54;;;;;;;22.85;17.90;;;5.80;99.90;;;;;;5076075;28;20192;-70
2022/03/20 07:19:21;;;;;;;23.23;18.30;;;5.80;99.90;;;;;;5076164;28;20569;-71
2022/03/20 07:21:47;;;;;;;26.42;19.15;;;6.00;99.90;;;;;;5076342;28;20208;-71
2022/03/20 07:24:14;;;;;;;24.20;18.35;;;6.10;99.90;;;;;;5076158;28;20204;-70
2022/03/20 07:29:31;;;;;;;23.83;18.13;;;6.60;99.90;;;;;;5076238;28;20219;-70
2022/03/20 07:32:01;;;;;;;25.80;20.00;;;6.60;99.90;;;;;;5076875;28;20257;-70
2022/03/20 07:34:27;;;;;;;28.63;19.40;;;6.80;99.90;;;;;;5075872;28;20200;-70
2022/03/20 07:36:54;;;;;;;27.88;19.88;;;6.70;99.90;;;;;;5076388;28;20688;-70
2022/03/20 07:39:20;;;;;;;26.35;18.95;;;6.70;99.90;;;;;;5076263;28;20231;-70
2022/03/20 07:41:47;;;;;;;24.42;19.75;;;6.80;99.90;;;;;;5074887;28;20204;-71
2022/03/20 07:44:14;;;;;;;25.80;19.77;;;6.80;99.90;;;;;;5076143;28;20204;-69
2022/03/20 07:46:40;;;;;;;23.35;18.38;;;6.80;99.90;;;;;;5075871;28;20211;-69
2022/03/20 07:49:08;;;;;;;26.40;18.92;;;6.90;99.90;;;;;;5076075;28;20218;-69
2022/03/20 07:51:35;;;;;;;23.88;19.17;;;6.90;99.90;;;;;;5075891;28;20709;-69
2022/03/20 07:54:03;;;;;;;24.38;19.92;;;7.00;99.90;;;;;;5076076;28;20212;-70
2022/03/20 07:56:34;;;;;;;24.58;20.58;;;7.10;99.90;;;;;;5075759;28;20200;-70
2022/03/20 07:59:07;;;;;;;24.33;19.15;;;7.20;99.90;;;;;;5075259;28;20200;-68
2022/03/20 08:01:34;;;;;;;23.55;18.95;;;7.30;99.90;;;;;;5074352;28;20245;-69
2022/03/20 08:04:02;;;;;;;27.08;20.17;;;7.30;99.90;;;;;;5075384;28;20227;-69
2022/03/20 08:06:29;;;;;;;25.85;20.27;;;7.50;99.90;;;;;;5075092;28;20626;-70
2022/03/20 08:08:59;;;;;;;25.83;20.23;;;7.70;99.90;;;;;;5075497;28;20208;-69
2022/03/20 08:11:30;;;;;;;30.58;22.17;;;7.80;99.90;;;;;;5075371;28;20200;-69
2022/03/20 08:14:00;;;;;;;28.45;20.33;;;7.80;99.90;;;;;;5074757;28;20181;-69
2022/03/20 08:16:27;;;;;;;26.30;19.58;;;7.90;99.90;;;;;;5075762;28;20200;-69
2022/03/20 08:18:55;;;;;;;28.60;20.75;;;7.70;99.90;;;;;;5075291;28;20200;-69
2022/03/20 08:21:21;;;;;;;31.42;20.25;;;7.80;99.90;;;;;;5075253;28;20211;-69
2022/03/20 08:23:48;;;;;;;27.08;19.88;;;8.10;99.90;;;;;;5075180;28;20208;-69
2022/03/20 08:26:18;;;;;;;26.15;19.92;;;8.10;99.90;;;;;;5075331;28;20211;-69
2022/03/20 08:28:45;;;;;;;28.02;20.15;;;8.20;99.90;;;;;;5075334;28;20208;-69
2022/03/20 08:31:13;;;;;;;25.20;20.42;;;8.10;99.90;;;;;;5074939;28;20216;-70
2022/03/20 08:33:43;;;;;;;33.08;21.48;;;8.30;99.90;;;;;;5075468;28;20204;-70
2022/03/20 08:36:12;;;;;;;29.27;20.45;;;8.30;99.90;;;;;;5075260;28;20206;-70
2022/03/20 08:38:39;;;;;;;27.92;20.65;;;8.10;99.90;;;;;;5074903;28;20675;-70
2022/03/20 08:41:05;;;;;;;33.47;23.08;;;8.10;99.90;;;;;;5075257;28;20260;-70
2022/03/20 08:43:32;;;;;;;28.88;21.35;;;8.30;99.90;;;;;;5075162;28;20203;-70
2022/03/20 08:45:58;;;;;;;25.23;21.15;;;8.80;99.90;;;;;;5074726;28;20737;-70
2022/03/20 08:48:25;;;;;;;28.50;22.30;;;8.90;99.90;;;;;;5075022;28;20270;-71
2022/03/20 08:50:51;;;;;;;24.75;21.45;;;9.30;99.90;;;;;;5074424;28;20679;-71
2022/03/20 08:53:19;;;;;;;29.20;21.65;;;9.50;99.90;;;;;;5075389;28;20210;-69
2022/03/20 08:55:47;;;;;;;28.70;23.02;;;9.60;99.90;;;;;;5073659;28;20720;-69
2022/03/20 08:58:14;;;;;;;33.90;22.45;;;9.80;99.90;;;;;;5074479;28;20196;-69
2022/03/20 09:00:41;;;;;;;30.10;21.48;;;9.10;99.90;;;;;;5074455;28;20203;-68
2022/03/20 09:03:10;;;;;;;27.38;20.45;;;8.70;99.90;;;;;;5073319;28;20242;-68
2022/03/20 09:05:37;;;;;;;24.85;20.13;;;8.80;99.90;;;;;;5072953;28;20246;-68
2022/03/20 09:08:05;;;;;;;25.73;21.50;;;8.90;99.90;;;;;;5074230;28;20591;-69
2022/03/20 09:10:31;;;;;;;24.00;21.23;;;9.10;99.90;;;;;;5074800;28;20223;-69
2022/03/20 09:13:00;;;;;;;27.65;22.10;;;9.10;99.90;;;;;;5074371;28;20660;-69
2022/03/20 09:15:28;;;;;;;29.30;22.70;;;8.80;99.90;;;;;;5074365;28;20212;-69
2022/03/20 09:20:42;;;;;;;28.55;21.42;;;8.50;99.90;;;;;;5074135;28;20196;-69
2022/03/20 09:23:09;;;;;;;26.15;22.15;;;8.70;99.90;;;;;;5074495;28;20203;-69
2022/03/20 09:25:36;;;;;;;29.98;20.30;;;8.50;99.90;;;;;;5074032;28;20208;-69
2022/03/20 09:28:05;;;;;;;28.88;22.98;;;8.40;99.90;;;;;;5073765;28;20565;-69
2022/03/20 09:30:33;;;;;;;34.15;21.95;;;8.50;99.90;;;;;;5074227;28;20223;-69
2022/03/20 09:33:02;;;;;;;28.17;21.40;;;8.70;99.90;;;;;;5074611;28;20203;-69
2022/03/20 09:35:29;;;;;;;25.40;22.10;;;8.60;99.90;;;;;;5073956;28;20666;-70
2022/03/20 09:37:55;;;;;;;26.77;21.60;;;8.90;99.90;;;;;;5074060;28;20200;-69
2022/03/20 09:40:23;;;;;;;25.92;22.50;;;8.90;99.90;;;;;;5072141;28;20208;-69
2022/03/20 09:42:50;;;;;;;25.33;20.80;;;8.90;99.90;;;;;;5073955;28;20207;-69
2022/03/20 09:45:18;;;;;;;27.40;22.58;;;9.00;99.90;;;;;;5074058;28;20241;-70
2022/03/20 09:47:45;;;;;;;26.30;21.58;;;9.50;99.90;;;;;;5073926;28;20725;-69
2022/03/20 09:50:13;;;;;;;27.25;21.20;;;9.40;99.90;;;;;;5073665;28;20223;-70
2022/03/20 09:52:40;;;;;;;26.40;22.33;;;9.00;99.90;;;;;;5073657;28;20222;-69
2022/03/20 09:55:08;;;;;;;27.73;21.85;;;8.60;99.90;;;;;;5073555;28;20725;-69
2022/03/20 09:57:35;;;;;;;28.30;22.23;;;8.30;99.90;;;;;;5074044;28;20674;-70
2022/03/20 10:00:10;;;;;;;30.73;22.55;;;8.10;99.90;;;;;;5073841;28;20580;-69
2022/03/20 10:02:37;;;;;;;29.83;22.98;;;8.20;99.90;;;;;;5073407;28;20211;-70
2022/03/20 10:05:07;;;;;;;27.60;22.42;;;8.20;99.90;;;;;;5072912;28;20801;-70
2022/03/20 10:07:39;;;;;;;27.30;22.50;;;8.30;99.90;;;;;;5073631;28;20228;-71
2022/03/20 10:10:15;;;;;;;31.20;23.35;;;8.40;99.90;;;;;;5073391;28;20208;-70
2022/03/20 10:12:44;;;;;;;28.70;21.67;;;8.60;99.90;;;;;;5073811;28;20207;-70
2022/03/20 10:15:33;;;;;;;26.30;20.90;;;8.60;99.90;;;;;;5072147;28;20204;-71
2022/03/20 10:18:06;;;;;;;28.58;22.83;;;8.60;99.90;;;;;;5072646;28;20283;-71
2022/03/20 10:20:44;;;;;;;26.52;21.17;;;9.00;99.90;;;;;;5074174;28;20592;-70
2022/03/20 10:23:39;;;;;;;27.80;20.55;;;9.20;99.90;;;;;;5073405;28;20214;-71
2022/03/20 10:26:11;;;;;;;27.38;21.25;;;9.30;99.90;;;;;;5071904;28;20211;-71
2022/03/20 10:28:52;;;;;;;28.13;21.75;;;9.40;99.90;;;;;;5073318;28;20677;-71
2022/03/20 10:31:22;;;;;;;24.35;20.88;;;9.50;99.90;;;;;;5073373;28;20215;-71
2022/03/20 10:34:03;;;;;;;26.65;21.45;;;9.80;99.90;;;;;;5072809;28;20188;-71
2022/03/20 10:36:29;;;;;;;25.58;21.05;;;10.10;99.90;;;;;;5074543;28;20192;-71
2022/03/20 10:38:56;;;;;;;30.15;21.27;;;9.90;99.90;;;;;;5076689;28;20269;-71
2022/03/20 10:41:34;;;;;;;27.25;21.55;;;9.80;99.90;;;;;;5077332;28;20210;-71
2022/03/20 10:44:02;;;;;;;27.45;22.33;;;10.00;99.90;;;;;;5077268;28;20206;-71
2022/03/20 10:46:31;;;;;;;27.70;22.13;;;10.10;99.90;;;;;;5076419;28;20349;-73
2022/03/20 10:49:02;;;;;;;28.75;22.00;;;10.70;99.90;;;;;;5076764;28;20206;-72
2022/03/20 10:51:37;;;;;;;26.52;20.42;;;10.70;99.90;;;;;;5076963;28;20546;-71
2022/03/20 10:54:12;;;;;;;30.10;22.60;;;11.00;99.90;;;;;;5076202;28;20265;-71
2022/03/20 10:57:02;;;;;;;25.63;20.30;;;11.50;99.90;;;;;;5076229;28;20636;-71
2022/03/20 10:59:32;;;;;;;25.33;21.43;;;11.90;99.90;;;;;;5076320;28;21200;-71
2022/03/20 11:02:00;;;;;;;25.55;22.65;;;12.30;99.90;;;;;;5076356;28;21114;-71
2022/03/20 11:04:28;;;;;;;28.77;22.90;;;12.20;99.90;;;;;;5075982;28;20238;-71
2022/03/20 11:06:54;;;;;;;27.77;21.70;;;11.90;99.90;;;;;;5074976;28;20277;-71
2022/03/20 11:09:21;;;;;;;31.60;23.50;;;11.80;99.90;;;;;;5076120;28;20656;-71
2022/03/20 11:11:58;;;;;;;24.77;22.10;;;11.80;99.90;;;;;;5076199;28;20702;-71
2022/03/20 11:14:27;;;;;;;25.40;21.13;;;11.90;99.90;;;;;;5076102;28;20578;-71
2022/03/20 11:16:56;;;;;;;27.50;21.53;;;12.50;99.90;;;;;;5076248;28;20614;-71
2022/03/20 11:19:26;;;;;;;23.93;20.70;;;13.00;99.90;;;;;;5075339;28;20613;-71
2022/03/20 11:21:55;;;;;;;24.57;22.10;;;13.90;99.90;;;;;;5075934;28;20626;-71
2022/03/20 11:24:21;;;;;;;25.13;21.07;;;13.60;99.90;;;;;;5075916;28;20613;-71
2022/03/20 11:26:53;;;;;;;26.00;21.33;;;13.80;99.90;;;;;;5075732;28;20647;-71
2022/03/20 11:29:23;;;;;;;25.83;21.20;;;13.40;99.90;;;;;;5076103;28;20578;-71
2022/03/20 11:31:49;;;;;;;22.20;20.10;;;13.40;99.90;;;;;;5076088;28;20661;-72
2022/03/20 11:34:17;;;;;;;25.23;21.53;;;13.50;99.90;;;;;;5075465;28;21123;-71
2022/03/20 11:37:04;;;;;;;24.10;21.60;;;14.10;99.90;;;;;;5075717;28;21168;-71
2022/03/20 11:39:30;;;;;;;24.90;21.10;;;14.90;99.90;;;;;;5075402;28;20683;-71
2022/03/20 11:42:23;;;;;;;23.83;20.53;;;15.50;99.90;;;;;;5075746;28;20767;-72
2022/03/20 11:45:04;;;;;;;27.23;22.40;;;15.10;99.90;;;;;;5076262;28;20636;-71
2022/03/20 11:47:35;;;;;;;29.30;22.50;;;15.20;99.90;;;;;;5075183;28;20618;-71
2022/03/20 11:50:19;;;;;;;31.83;25.70;;;15.40;99.90;;;;;;5074348;28;21005;-70
2022/03/20 11:52:48;;;;;;;23.83;21.43;;;16.30;99.90;;;;;;5076195;28;20614;-71
2022/03/20 11:55:35;;;;;;;27.17;24.30;;;16.00;99.90;;;;;;5075961;28;20614;-71
2022/03/20 11:58:22;;;;;;;26.63;23.80;;;15.40;99.90;;;;;;5073666;28;21159;-71
2022/03/20 12:01:04;;;;;;;26.83;23.87;;;15.80;99.90;;;;;;5067815;28;20674;-71
2022/03/20 12:03:52;;;;;;;22.90;20.50;;;16.20;99.90;;;;;;5074956;28;20767;-71
2022/03/20 12:06:24;;;;;;;23.57;21.00;;;16.20;99.90;;;;;;5075371;28;20638;-71
2022/03/20 12:09:21;;;;;;;22.93;20.53;;;16.50;99.90;;;;;;5074836;28;20713;-71
2022/03/20 12:12:17;;;;;;;24.70;22.20;;;16.30;99.90;;;;;;5074981;28;20606;-71
2022/03/20 12:14:51;;;;;;;24.50;22.00;;;17.80;99.90;;;;;;5073226;28;20637;-72
2022/03/20 12:17:18;;;;;;;25.10;22.60;;;17.20;99.90;;;;;;5075003;28;20628;-71
2022/03/20 12:19:48;;;;;;;25.77;21.63;;;16.90;99.90;;;;;;5074698;28;20614;-71
2022/03/20 12:22:33;;;;;;;23.57;21.17;;;17.20;99.90;;;;;;5074596;28;20620;-71
2022/03/20 12:25:03;;;;;;;31.93;20.37;;;17.90;99.90;;;;;;5074789;28;20630;-71
2022/03/20 12:27:30;;;;;;;23.73;21.23;;;17.70;99.90;;;;;;5073721;28;20618;-72
2022/03/20 12:30:04;;;;;;;26.80;21.50;;;17.50;99.90;;;;;;5074922;28;20618;-71
2022/03/20 12:32:48;;;;;;;26.67;21.50;;;17.40;99.90;;;;;;5074520;28;20575;-72
2022/03/20 12:35:22;;;;;;;24.07;21.50;;;17.30;99.90;;;;;;5074833;28;21035;-71
2022/03/20 12:37:50;;;;;;;25.80;21.90;;;17.70;99.90;;;;;;5074972;28;20574;-71
2022/03/20 12:40:30;;;;;;;31.00;21.57;;;18.20;99.90;;;;;;5074260;28;20685;-72
2022/03/20 12:43:05;;;;;;;23.30;19.90;;;18.60;99.90;;;;;;5074472;28;20610;-71
2022/03/20 12:45:33;;;;;;;25.03;19.67;;;17.80;99.90;;;;;;5073920;28;20630;-71
2022/03/20 12:48:06;;;;;;;22.90;20.57;;;17.80;99.90;;;;;;5074077;28;20610;-72
2022/03/20 12:50:35;;;;;;;22.47;19.60;;;18.60;99.90;;;;;;5073717;28;20619;-71
2022/03/20 12:53:16;;;;;;;23.97;19.87;;;18.90;99.90;;;;;;5074467;28;20624;-72
2022/03/20 12:55:57;;;;;;;23.37;21.00;;;19.10;99.90;;;;;;5073575;28;20592;-71
2022/03/20 12:58:25;;;;;;;23.50;19.60;;;19.00;99.90;;;;;;5073705;28;20570;-72
2022/03/20 13:00:55;;;;;;;21.97;18.90;;;18.90;99.90;;;;;;5072799;28;21277;-71
2022/03/20 13:03:22;;;;;;;20.33;18.30;;;19.40;99.90;;;;;;5073523;28;21216;-71
2022/03/20 13:05:54;;;;;;;29.07;19.20;;;19.70;99.90;;;;;;5073617;28;20645;-71
2022/03/20 13:08:23;;;;;;;21.73;17.00;;;19.10;99.90;;;;;;5074109;28;20618;-71
2022/03/20 13:10:52;;;;;;;20.57;18.17;;;19.00;99.90;;;;;;5074214;28;20943;-72
2022/03/20 13:13:23;;;;;;;26.50;17.60;;;18.00;99.90;;;;;;5074003;28;20622;-71
2022/03/20 13:15:50;;;;;;;18.50;15.80;;;18.80;99.90;;;;;;5072330;28;20652;-69